Time;durP1;ratioP1;P1;durP2;ratioP2;P2;SDS_P1;SDS_P2;PMS_P1;PMS_P2;Temp;Humidity;BMP_temperature;BMP_pressure;BME280_temperature;BME280_humidity;BME280_pressure;Samples;Min_cycle;Max_cycle;Signal;HPM_P1;HPM_P2
2022/02/11 00:00:53;;;;;;;8.03;5.73;;;9.40;74.00;;;;;;5118125;28;20537;-46
2022/02/11 00:08:30;;;;;;;8.10;6.07;;;9.40;74.10;;;;;;5117116;28;20525;-45
2022/02/11 00:10:55;;;;;;;5.47;4.97;;;9.40;74.20;;;;;;5118622;28;20509;-45
2022/02/11 00:13:21;;;;;;;6.67;5.60;;;9.40;74.30;;;;;;5117426;28;20214;-45
2022/02/11 00:15:49;;;;;;;7.17;5.40;;;9.40;74.40;;;;;;5117877;28;20184;-45
2022/02/11 00:18:16;;;;;;;7.23;6.30;;;9.40;74.50;;;;;;5116738;28;20172;-45
2022/02/11 00:20:51;;;;;;;8.07;6.27;;;9.40;74.80;;;;;;5099639;28;20556;-45
2022/02/11 00:23:18;;;;;;;7.37;6.20;;;9.40;75.00;;;;;;5098450;28;20582;-45
2022/02/11 00:25:50;;;;;;;8.90;7.67;;;9.30;75.80;;;;;;5117284;28;20418;-46
2022/02/11 00:33:36;;;;;;;7.80;6.47;;;9.30;75.80;;;;;;5116450;28;20450;-45
2022/02/11 00:36:05;;;;;;;8.67;7.47;;;9.20;75.80;;;;;;5117580;28;20685;-46
2022/02/11 01:02:59;;;;;;;9.90;7.47;;;9.10;77.60;;;;;;5116412;28;20713;-45
2022/02/11 01:05:24;;;;;;;11.40;7.87;;;9.00;77.90;;;;;;5117544;28;20410;-45
2022/02/11 01:07:50;;;;;;;7.67;6.73;;;9.00;78.30;;;;;;5116514;28;20767;-45
2022/02/11 01:10:17;;;;;;;8.17;7.37;;;9.00;78.70;;;;;;5100875;28;20220;-45
2022/02/11 01:12:43;;;;;;;7.23;6.53;;;8.90;79.00;;;;;;5117121;28;20183;-45
2022/02/11 01:15:09;;;;;;;7.40;6.63;;;8.90;79.60;;;;;;5100267;28;20461;-45
2022/02/11 01:17:43;;;;;;;7.80;6.97;;;8.90;80.20;;;;;;5116110;28;20770;-45
2022/02/11 01:20:22;;;;;;;8.60;6.20;;;8.80;80.40;;;;;;5100711;28;20526;-46
2022/02/11 01:33:33;;;;;;;8.27;7.37;;;8.70;82.60;;;;;;5114949;28;20775;-45
2022/02/11 01:38:39;;;;;;;10.10;7.50;;;8.60;83.00;;;;;;5116103;28;20894;-45
2022/02/11 01:52:40;;;;;;;10.30;5.63;;;8.40;81.40;;;;;;5101610;28;20906;-45
2022/02/11 02:11:23;;;;;;;7.50;5.47;;;8.10;80.00;;;;;;5117461;28;20417;-45
2022/02/11 02:14:17;;;;;;;7.53;5.70;;;8.10;80.10;;;;;;5115939;28;20510;-43
2022/02/11 02:37:58;;;;;;;3.90;3.43;;;8.00;79.80;;;;;;5105819;28;20175;-44
2022/02/11 02:56:55;;;;;;;4.40;3.20;;;7.90;80.90;;;;;;5105282;28;20842;-45
2022/02/11 04:24:34;;;;;;;1.13;0.90;;;6.60;90.10;;;;;;5117682;28;20766;-45
2022/02/11 04:56:37;;;;;;;3.03;2.83;;;5.90;90.40;;;;;;5115987;28;20882;-45
2022/02/11 05:01:47;;;;;;;2.70;2.50;;;5.90;90.40;;;;;;5100102;28;20873;-45
2022/02/11 05:04:13;;;;;;;2.67;2.40;;;5.80;90.40;;;;;;5116669;28;20414;-48
2022/02/11 05:06:39;;;;;;;2.27;2.07;;;5.80;90.60;;;;;;5114615;28;20513;-48
2022/02/11 05:09:04;;;;;;;2.07;1.97;;;5.80;90.60;;;;;;5116403;28;20172;-48
2022/02/11 05:11:30;;;;;;;2.07;1.87;;;5.80;90.70;;;;;;5114983;28;20176;-48
2022/02/11 05:13:56;;;;;;;2.53;2.33;;;5.80;90.70;;;;;;5115440;28;20234;-47
2022/02/11 05:16:22;;;;;;;2.00;1.90;;;5.80;90.70;;;;;;5114141;28;20429;-48
2022/02/11 05:18:47;;;;;;;2.00;1.90;;;5.80;90.80;;;;;;5117165;28;20542;-47
2022/02/11 05:21:13;;;;;;;2.40;2.20;;;5.80;90.80;;;;;;5115586;28;20257;-48
2022/02/11 05:23:38;;;;;;;2.20;2.00;;;5.80;90.90;;;;;;5116420;28;20303;-48
2022/02/11 05:26:04;;;;;;;2.30;2.10;;;5.80;90.90;;;;;;5116085;28;20176;-48
2022/02/11 05:28:30;;;;;;;3.00;2.53;;;5.80;90.90;;;;;;5118146;28;20172;-48
2022/02/11 05:30:55;;;;;;;2.60;2.40;;;5.80;91.10;;;;;;5116836;28;20213;-48
2022/02/11 05:33:22;;;;;;;2.23;2.03;;;5.70;91.10;;;;;;5115540;28;20456;-48
2022/02/11 05:35:48;;;;;;;1.60;1.50;;;5.70;91.10;;;;;;5116712;28;20190;-48
2022/02/11 05:38:14;;;;;;;2.20;2.00;;;5.70;91.20;;;;;;5098068;28;20438;-48
2022/02/11 05:40:40;;;;;;;2.00;1.80;;;5.70;91.30;;;;;;5117890;28;20476;-48
2022/02/11 05:43:05;;;;;;;2.23;2.03;;;5.70;91.30;;;;;;5115438;28;20183;-48
2022/02/11 05:45:31;;;;;;;2.20;2.00;;;5.70;91.30;;;;;;5117375;28;20437;-48
2022/02/11 05:47:57;;;;;;;2.30;2.10;;;5.60;91.40;;;;;;5116498;28;20188;-48
2022/02/11 05:50:23;;;;;;;2.93;2.53;;;5.60;91.50;;;;;;5117794;28;20846;-48
2022/02/11 05:52:48;;;;;;;3.10;2.80;;;5.60;91.50;;;;;;5102249;28;20620;-48
2022/02/11 05:55:14;;;;;;;3.43;3.13;;;5.60;91.60;;;;;;5121191;28;20516;-48
2022/02/11 05:57:39;;;;;;;3.40;3.10;;;5.60;91.60;;;;;;5120067;28;20188;-48
2022/02/11 06:00:06;;;;;;;3.20;2.90;;;5.60;91.60;;;;;;5120261;28;20208;-48
2022/02/11 06:02:32;;;;;;;3.40;3.10;;;5.60;91.60;;;;;;5118083;28;20192;-48
2022/02/11 06:04:57;;;;;;;2.80;2.60;;;5.60;91.60;;;;;;5119051;28;20410;-48
2022/02/11 06:07:23;;;;;;;3.80;3.27;;;5.60;91.60;;;;;;5116152;28;20437;-48
2022/02/11 06:09:49;;;;;;;3.27;2.80;;;5.60;91.60;;;;;;5118797;28;20219;-48
2022/02/11 06:12:14;;;;;;;3.10;2.80;;;5.60;91.50;;;;;;5117360;28;20206;-48
2022/02/11 06:14:42;;;;;;;3.60;2.83;;;5.60;91.40;;;;;;5118319;28;20658;-48
2022/02/11 06:17:08;;;;;;;5.47;3.07;;;5.60;91.50;;;;;;5115648;28;20180;-48
2022/02/11 06:19:34;;;;;;;4.97;4.57;;;5.50;91.50;;;;;;5117534;28;20858;-48
2022/02/11 06:21:59;;;;;;;9.53;7.70;;;5.50;91.50;;;;;;5117476;28;20592;-48
2022/02/11 06:24:25;;;;;;;8.80;7.90;;;5.50;91.50;;;;;;5118725;28;20228;-48
2022/02/11 06:26:50;;;;;;;8.30;7.00;;;5.50;91.50;;;;;;5118340;28;20192;-48
2022/02/11 06:29:16;;;;;;;7.80;6.40;;;5.50;91.60;;;;;;5118685;28;20180;-48
2022/02/11 06:31:42;;;;;;;6.33;5.07;;;5.50;91.60;;;;;;5116029;28;20179;-48
2022/02/11 06:34:07;;;;;;;8.17;6.43;;;5.50;91.60;;;;;;5115706;28;20176;-46
2022/02/11 06:36:34;;;;;;;4.20;3.80;;;5.40;91.40;;;;;;5118904;28;20249;-47
2022/02/11 06:39:00;;;;;;;4.90;4.50;;;5.40;91.50;;;;;;5117128;28;20430;-47
2022/02/11 06:41:25;;;;;;;7.03;4.27;;;5.30;91.50;;;;;;5118282;28;20421;-47
2022/02/11 06:43:51;;;;;;;3.93;3.53;;;5.30;91.50;;;;;;5116589;28;20435;-47
2022/02/11 06:46:21;;;;;;;4.70;4.23;;;5.30;91.50;;;;;;5117988;27;20192;-47
2022/02/11 06:48:48;;;;;;;4.63;4.23;;;5.30;91.50;;;;;;5130505;27;20444;-47
2022/02/11 06:51:14;;;;;;;3.57;3.23;;;5.20;91.40;;;;;;5136565;27;20406;-47
2022/02/11 06:53:40;;;;;;;4.37;3.00;;;5.20;91.30;;;;;;5134306;27;20421;-47
2022/02/11 06:56:05;;;;;;;5.50;4.23;;;5.20;91.30;;;;;;5136560;27;20416;-47
2022/02/11 06:58:31;;;;;;;3.67;3.37;;;5.20;91.10;;;;;;5136377;27;20294;-47
2022/02/11 07:00:57;;;;;;;4.13;3.73;;;5.20;91.00;;;;;;5138533;27;20267;-47
2022/02/11 07:03:23;;;;;;;5.50;3.03;;;5.20;90.90;;;;;;5119030;27;20251;-47
2022/02/11 07:05:51;;;;;;;3.77;3.30;;;5.20;90.80;;;;;;5139842;27;20202;-47
2022/02/11 07:08:17;;;;;;;3.10;2.80;;;5.20;90.70;;;;;;5138179;27;20421;-47
2022/02/11 07:10:43;;;;;;;4.00;2.80;;;5.20;90.70;;;;;;5139014;27;20417;-47
2022/02/11 07:13:16;;;;;;;8.20;3.30;;;5.10;90.60;;;;;;5137605;27;20841;-47
2022/02/11 07:15:43;;;;;;;6.00;3.50;;;5.20;90.60;;;;;;5135854;27;20848;-47
2022/02/11 07:18:09;;;;;;;6.23;3.90;;;5.20;90.60;;;;;;5137565;27;20433;-47
2022/02/11 07:20:35;;;;;;;4.90;3.53;;;5.10;90.50;;;;;;5136479;27;20944;-47
2022/02/11 07:23:01;;;;;;;3.33;2.97;;;5.10;90.50;;;;;;5138850;27;20475;-48
2022/02/11 07:25:27;;;;;;;4.07;3.20;;;5.10;90.60;;;;;;5137115;27;20428;-48
2022/02/11 07:27:52;;;;;;;7.83;4.27;;;5.10;90.60;;;;;;5137407;27;20210;-47
2022/02/11 07:30:20;;;;;;;7.03;5.80;;;5.10;90.50;;;;;;5137339;27;20474;-48
2022/02/11 07:32:51;;;;;;;10.53;6.17;;;5.20;90.50;;;;;;5138303;27;20557;-47
2022/02/11 07:35:20;;;;;;;7.17;5.87;;;5.10;90.30;;;;;;5135697;27;20783;-48
2022/02/11 07:37:46;;;;;;;10.70;5.93;;;5.20;90.30;;;;;;5137479;27;20428;-47
2022/02/11 07:40:14;;;;;;;5.83;5.27;;;5.30;90.20;;;;;;5135824;27;20473;-47
2022/02/11 07:42:45;;;;;;;6.53;4.33;;;5.60;90.20;;;;;;5138029;27;20172;-47
2022/02/11 07:45:11;;;;;;;4.40;3.90;;;5.90;89.90;;;;;;5137552;27;21441;-48
2022/02/11 07:47:37;;;;;;;4.87;3.87;;;6.20;89.30;;;;;;5138353;27;20413;-48
2022/02/11 07:50:04;;;;;;;3.60;3.03;;;6.60;88.70;;;;;;5137162;27;20475;-47
2022/02/11 07:52:29;;;;;;;4.90;3.30;;;6.90;87.60;;;;;;5139274;27;20564;-47
2022/02/11 07:54:55;;;;;;;4.30;3.90;;;7.30;86.50;;;;;;5136113;27;20424;-48
2022/02/11 07:57:21;;;;;;;5.17;3.23;;;7.60;85.50;;;;;;5138003;27;20572;-47
2022/02/11 07:59:46;;;;;;;4.63;3.43;;;7.90;84.30;;;;;;5137960;27;20499;-47
2022/02/11 08:02:12;;;;;;;4.47;3.07;;;8.30;83.30;;;;;;5136073;27;20332;-47
2022/02/11 08:04:38;;;;;;;5.57;2.60;;;8.50;82.00;;;;;;5137562;27;20175;-48
2022/02/11 08:07:04;;;;;;;3.13;2.50;;;8.70;81.00;;;;;;5135571;27;20290;-48
2022/02/11 08:09:30;;;;;;;3.10;2.50;;;9.00;80.30;;;;;;5136981;27;20470;-47
2022/02/11 08:11:57;;;;;;;5.80;2.90;;;9.30;79.60;;;;;;5126700;27;20231;-48
2022/02/11 08:14:26;;;;;;;4.00;2.90;;;9.50;78.20;;;;;;5110577;27;20187;-47
2022/02/11 08:16:52;;;;;;;3.90;2.90;;;9.60;76.70;;;;;;5127203;27;20450;-47
2022/02/11 08:19:22;;;;;;;3.00;2.23;;;9.80;75.80;;;;;;5129526;27;21711;-47
2022/02/11 08:21:48;;;;;;;4.33;2.80;;;9.90;74.60;;;;;;5126032;27;20174;-47
2022/02/11 08:24:14;;;;;;;5.00;2.10;;;10.20;72.10;;;;;;5131953;27;20492;-48
2022/02/11 08:26:41;;;;;;;1.70;1.40;;;10.40;70.80;;;;;;5116108;28;20437;-47
2022/02/11 08:29:08;;;;;;;1.60;1.43;;;11.00;85.70;;;;;;5137054;27;20413;-47
2022/02/11 08:31:35;;;;;;;1.93;1.17;;;11.80;90.60;;;;;;5136705;27;20847;-47
2022/02/11 08:34:01;;;;;;;2.03;1.50;;;12.50;90.90;;;;;;5135055;27;20478;-47
2022/02/11 08:36:26;;;;;;;1.83;1.30;;;13.00;90.10;;;;;;5134288;27;20429;-47
2022/02/11 08:38:53;;;;;;;3.43;1.93;;;13.50;87.50;;;;;;5136199;27;20423;-47
2022/02/11 08:41:19;;;;;;;1.57;1.20;;;13.80;84.50;;;;;;5135835;27;20211;-47
2022/02/11 08:43:45;;;;;;;4.07;1.60;;;14.20;81.80;;;;;;5132129;27;20811;-47
2022/02/11 08:46:10;;;;;;;4.60;1.47;;;14.40;80.30;;;;;;5134348;27;20429;-47
2022/02/11 08:48:36;;;;;;;1.57;1.40;;;14.60;79.00;;;;;;5134738;27;20190;-47
2022/02/11 08:51:02;;;;;;;1.80;1.37;;;14.80;77.50;;;;;;5135205;27;20213;-47
2022/02/11 08:53:30;;;;;;;2.70;1.40;;;14.90;75.80;;;;;;5134353;27;20577;-47
2022/02/11 08:55:55;;;;;;;2.30;1.33;;;15.10;73.70;;;;;;5137962;27;20182;-48
2022/02/11 08:58:21;;;;;;;3.27;1.40;;;15.10;70.60;;;;;;5136230;27;20430;-47
2022/02/11 09:00:50;;;;;;;3.03;1.70;;;15.20;70.00;;;;;;5135136;27;20215;-47
2022/02/11 09:03:16;;;;;;;2.50;1.80;;;15.60;67.70;;;;;;5134174;27;20446;-47
2022/02/11 09:05:42;;;;;;;3.10;1.70;;;16.00;65.60;;;;;;5134813;27;20428;-47
2022/02/11 09:08:09;;;;;;;2.20;1.30;;;16.60;64.70;;;;;;5136544;27;20405;-48
2022/02/11 09:10:35;;;;;;;2.80;1.43;;;17.40;61.70;;;;;;5134964;27;20519;-48
2022/02/11 09:13:01;;;;;;;2.70;1.50;;;17.90;58.40;;;;;;5137318;27;20419;-48
2022/02/11 09:15:28;;;;;;;3.13;1.70;;;18.20;56.30;;;;;;5135297;27;20420;-47
2022/02/11 09:17:55;;;;;;;3.30;1.30;;;18.60;54.90;;;;;;5118337;28;20421;-48
2022/02/11 09:20:22;;;;;;;3.70;1.80;;;19.00;53.20;;;;;;5134451;28;20466;-48
2022/02/11 09:22:47;;;;;;;4.93;1.90;;;19.40;51.90;;;;;;5137543;28;20508;-47
2022/02/11 09:25:14;;;;;;;2.23;1.20;;;19.70;49.10;;;;;;5136652;27;20532;-48
2022/02/11 09:27:43;;;;;;;6.30;1.70;;;19.90;48.30;;;;;;5140621;27;20408;-48
2022/02/11 09:30:17;;;;;;;2.30;1.10;;;20.10;48.30;;;;;;5139587;27;20435;-47
2022/02/11 09:32:47;;;;;;;2.70;1.43;;;20.50;47.60;;;;;;5141140;27;20421;-40
2022/02/11 09:35:14;;;;;;;2.70;1.90;;;20.90;46.00;;;;;;5140557;27;20695;-40
2022/02/11 09:37:40;;;;;;;2.80;1.60;;;21.30;45.30;;;;;;5142504;27;20424;-46
2022/02/11 09:40:09;;;;;;;3.37;1.90;;;21.60;44.40;;;;;;5140041;27;20479;-43
2022/02/11 09:42:36;;;;;;;2.30;1.70;;;22.00;43.60;;;;;;5139530;27;20455;-41
2022/02/11 09:45:03;;;;;;;2.00;1.60;;;22.30;42.10;;;;;;5137984;27;20430;-42
2022/02/11 09:47:28;;;;;;;2.30;1.23;;;22.20;41.70;;;;;;5121306;27;20606;-42
2022/02/11 09:49:54;;;;;;;5.67;1.70;;;21.80;41.80;;;;;;5139064;27;20439;-42
2022/02/11 09:52:20;;;;;;;2.50;1.60;;;21.40;42.40;;;;;;5140709;27;20172;-41
2022/02/11 09:54:46;;;;;;;4.27;1.90;;;21.10;42.60;;;;;;5138334;27;20256;-41
2022/02/11 09:57:13;;;;;;;2.97;1.70;;;20.90;42.90;;;;;;5139650;27;20266;-41
2022/02/11 09:59:40;;;;;;;4.60;1.90;;;21.10;42.20;;;;;;5138050;27;20543;-41
2022/02/11 10:02:06;;;;;;;2.73;1.50;;;21.10;41.70;;;;;;5121228;27;20418;-39
2022/02/11 10:04:32;;;;;;;3.03;1.70;;;21.00;42.20;;;;;;5136612;27;20485;-41
2022/02/11 10:07:00;;;;;;;2.50;1.40;;;21.00;43.20;;;;;;5139990;27;20420;-42
2022/02/11 10:09:27;;;;;;;3.70;2.23;;;21.10;42.10;;;;;;5119425;27;20427;-42
2022/02/11 10:11:53;;;;;;;2.13;1.70;;;21.30;41.30;;;;;;5120096;27;20789;-43
2022/02/11 10:14:27;;;;;;;4.27;1.90;;;21.70;41.70;;;;;;5136004;27;20447;-41
2022/02/11 10:16:57;;;;;;;3.53;2.37;;;22.20;40.10;;;;;;5140157;27;20235;-40
2022/02/11 10:19:36;;;;;;;3.23;2.17;;;22.50;39.50;;;;;;5138464;27;20464;-41
2022/02/11 10:22:20;;;;;;;2.90;1.70;;;22.70;38.80;;;;;;5138560;27;20417;-42
2022/02/11 10:24:47;;;;;;;2.70;1.40;;;22.60;38.50;;;;;;5138274;27;20433;-42
2022/02/11 10:27:22;;;;;;;5.30;1.73;;;22.30;39.80;;;;;;5139494;27;20594;-42
2022/02/11 10:29:55;;;;;;;2.80;2.10;;;22.40;39.20;;;;;;5138112;27;20411;-40
2022/02/11 10:32:43;;;;;;;2.67;1.97;;;22.00;38.30;;;;;;5138874;27;20712;-41
2022/02/11 10:35:14;;;;;;;5.87;2.17;;;21.70;39.60;;;;;;5136282;27;20504;-41
2022/02/11 10:38:13;;;;;;;2.63;1.63;;;21.60;39.80;;;;;;5138575;27;20504;-44
2022/02/11 10:40:41;;;;;;;3.13;1.60;;;21.60;39.70;;;;;;5138190;27;20683;-41
2022/02/11 10:43:19;;;;;;;4.67;1.53;;;21.50;40.70;;;;;;5139600;27;20521;-44
2022/02/11 10:45:45;;;;;;;2.10;1.43;;;21.80;40.30;;;;;;5137414;27;20426;-41
2022/02/11 10:48:15;;;;;;;2.07;1.40;;;21.60;39.10;;;;;;5137047;27;20420;-42
2022/02/11 10:50:46;;;;;;;3.43;1.70;;;21.40;38.20;;;;;;5134758;27;20411;-43
2022/02/11 10:53:20;;;;;;;4.10;1.90;;;21.10;39.00;;;;;;5138413;27;20413;-41
2022/02/11 10:55:52;;;;;;;2.57;1.40;;;20.90;39.30;;;;;;5137263;27;20897;-42
2022/02/11 10:58:18;;;;;;;2.57;1.30;;;20.70;39.10;;;;;;5137260;27;20420;-41
2022/02/11 11:00:45;;;;;;;2.40;1.40;;;20.50;39.70;;;;;;5119274;27;20472;-41
2022/02/11 11:03:11;;;;;;;2.83;1.80;;;20.40;40.60;;;;;;5139346;27;20705;-41
2022/02/11 11:05:42;;;;;;;3.10;1.60;;;20.70;40.50;;;;;;5140811;27;20538;-42
2022/02/11 11:08:13;;;;;;;4.57;1.97;;;20.90;40.40;;;;;;5140225;27;20443;-42
2022/02/11 11:10:44;;;;;;;3.33;1.70;;;21.80;39.50;;;;;;5101837;27;20428;-43
2022/02/11 11:13:14;;;;;;;3.00;1.50;;;22.90;38.40;;;;;;5137302;27;21033;-41
2022/02/11 11:15:44;;;;;;;2.30;1.70;;;24.00;36.80;;;;;;5119178;27;20434;-43
2022/02/11 11:18:11;;;;;;;2.93;1.70;;;24.60;34.60;;;;;;5119499;27;20424;-43
2022/02/11 11:20:39;;;;;;;3.60;1.80;;;24.90;35.10;;;;;;5137379;27;20473;-41
2022/02/11 11:23:22;;;;;;;3.50;1.90;;;24.90;34.20;;;;;;5118107;27;20724;-43
2022/02/11 11:26:02;;;;;;;3.57;2.30;;;24.40;33.20;;;;;;5119921;27;20424;-42
2022/02/11 11:28:43;;;;;;;3.23;1.80;;;24.50;32.70;;;;;;5137449;27;20542;-45
2022/02/11 11:31:14;;;;;;;2.60;1.93;;;24.20;32.20;;;;;;5137163;27;20431;-43
2022/02/11 11:33:40;;;;;;;3.03;1.93;;;23.40;31.70;;;;;;5138822;27;20630;-42
2022/02/11 11:36:07;;;;;;;4.70;2.00;;;22.60;31.80;;;;;;5136629;27;20527;-42
2022/02/11 11:38:38;;;;;;;2.53;2.00;;;21.70;32.10;;;;;;5139377;27;20435;-45
2022/02/11 11:41:19;;;;;;;2.90;2.43;;;21.20;32.70;;;;;;5119583;27;20484;-44
2022/02/11 11:43:52;;;;;;;3.13;2.03;;;20.70;33.00;;;;;;5140310;27;20676;-44
2022/02/11 11:46:18;;;;;;;4.93;2.27;;;20.30;33.30;;;;;;5119033;27;20502;-44
2022/02/11 11:49:09;;;;;;;5.57;2.20;;;19.90;33.60;;;;;;5138196;27;20738;-43
2022/02/11 11:51:38;;;;;;;4.03;1.90;;;19.20;33.70;;;;;;5120098;27;20404;-41
2022/02/11 11:54:21;;;;;;;4.97;2.10;;;18.50;34.00;;;;;;5136530;27;20408;-46
2022/02/11 11:56:58;;;;;;;6.73;2.43;;;17.70;34.30;;;;;;5135596;27;20459;-42
2022/02/11 11:59:31;;;;;;;3.30;1.87;;;17.20;34.80;;;;;;5135290;27;20517;-43
2022/02/11 12:02:04;;;;;;;2.97;1.87;;;16.80;35.30;;;;;;5125987;27;20424;-44
2022/02/11 12:04:39;;;;;;;3.40;2.60;;;16.30;35.70;;;;;;5111291;27;20517;-44
2022/02/11 12:07:25;;;;;;;2.43;1.63;;;15.80;36.10;;;;;;5136117;27;20750;-42
2022/02/11 12:09:53;;;;;;;7.13;2.30;;;15.60;36.50;;;;;;5115705;27;20413;-44
2022/02/11 12:12:29;;;;;;;4.17;2.67;;;15.50;36.80;;;;;;5097136;28;20431;-43
2022/02/11 12:15:01;;;;;;;3.67;2.00;;;15.30;36.90;;;;;;5129919;27;20722;-46
2022/02/11 12:17:27;;;;;;;5.00;2.60;;;15.00;37.30;;;;;;5137148;27;20454;-45
2022/02/11 12:19:54;;;;;;;3.67;2.10;;;14.90;36.80;;;;;;5125494;27;20493;-42
2022/02/11 12:22:22;;;;;;;3.80;2.00;;;14.80;36.80;;;;;;5105547;27;20175;-42
2022/02/11 12:27:37;;;;;;;5.80;2.40;;;14.50;36.40;;;;;;5112074;27;20718;-43
2022/02/11 12:30:06;;;;;;;3.17;2.27;;;15.50;36.80;;;;;;5121409;27;20414;-43
2022/02/11 12:32:43;;;;;;;3.73;2.10;;;16.80;36.70;;;;;;5125804;27;20413;-42
2022/02/11 12:35:14;;;;;;;3.13;2.30;;;18.20;35.60;;;;;;5123615;27;20462;-44
2022/02/11 12:37:42;;;;;;;3.60;2.30;;;19.00;34.30;;;;;;5105869;27;20423;-44
2022/02/11 12:40:15;;;;;;;3.83;2.03;;;19.90;33.40;;;;;;5130953;27;20466;-42
2022/02/11 12:42:41;;;;;;;2.53;1.63;;;20.60;33.00;;;;;;5131934;27;20421;-45
2022/02/11 12:45:10;;;;;;;4.40;2.17;;;21.20;32.70;;;;;;5124684;27;20405;-43
2022/02/11 12:47:37;;;;;;;2.40;1.60;;;21.20;32.50;;;;;;5129262;27;20420;-43
2022/02/11 12:50:03;;;;;;;2.67;2.13;;;21.50;32.10;;;;;;5134046;27;21132;-41
2022/02/11 12:52:33;;;;;;;4.27;1.87;;;21.30;32.30;;;;;;5136342;27;20884;-43
2022/02/11 12:55:19;;;;;;;2.13;1.63;;;20.80;31.70;;;;;;5135371;27;20913;-44
2022/02/11 12:58:08;;;;;;;3.07;1.50;;;20.10;31.30;;;;;;5135262;27;20420;-43
2022/02/11 13:00:39;;;;;;;2.70;1.30;;;19.20;31.10;;;;;;5134159;27;20553;-44
2022/02/11 13:03:06;;;;;;;2.63;1.53;;;18.40;31.40;;;;;;5135824;27;20403;-42
2022/02/11 13:05:39;;;;;;;2.70;1.57;;;17.70;31.80;;;;;;5133503;27;20838;-42
2022/02/11 13:08:08;;;;;;;2.17;1.57;;;17.10;32.30;;;;;;5118012;27;20414;-41
2022/02/11 13:10:36;;;;;;;2.90;1.63;;;16.50;32.70;;;;;;5116040;27;20563;-42
2022/02/11 13:13:21;;;;;;;3.00;1.40;;;16.20;33.40;;;;;;5117523;27;20449;-42
2022/02/11 13:15:47;;;;;;;2.40;1.60;;;15.80;33.90;;;;;;5135079;27;20699;-42
2022/02/11 13:18:18;;;;;;;2.57;1.80;;;15.40;34.40;;;;;;5117417;27;20432;-41
2022/02/11 13:20:45;;;;;;;2.73;1.70;;;15.10;34.80;;;;;;5097682;28;20584;-43
2022/02/11 13:23:14;;;;;;;5.33;2.20;;;14.90;35.20;;;;;;5113345;28;20469;-44
2022/02/11 13:25:44;;;;;;;3.50;2.00;;;14.60;35.50;;;;;;5113492;28;20428;-42
2022/02/11 13:28:15;;;;;;;4.67;2.57;;;14.30;35.80;;;;;;5115326;28;20561;-43
2022/02/11 13:30:45;;;;;;;2.63;1.70;;;14.10;36.10;;;;;;5113808;28;20852;-41
2022/02/11 13:33:40;;;;;;;3.60;2.17;;;13.90;36.30;;;;;;5114977;28;20520;-43
2022/02/11 13:36:10;;;;;;;3.73;2.30;;;13.70;36.70;;;;;;5091930;28;20442;-43
2022/02/11 13:38:46;;;;;;;3.60;2.10;;;13.80;36.90;;;;;;5117974;27;20429;-41
2022/02/11 13:41:15;;;;;;;2.97;1.90;;;14.10;37.00;;;;;;5122538;28;20465;-44
2022/02/11 13:43:58;;;;;;;2.63;2.10;;;14.30;37.00;;;;;;5133737;27;20430;-42
2022/02/11 13:46:35;;;;;;;3.33;1.73;;;14.30;36.70;;;;;;5116839;28;20803;-42
2022/02/11 13:49:09;;;;;;;3.50;1.73;;;14.50;36.70;;;;;;5136367;27;20417;-42
2022/02/11 13:51:37;;;;;;;5.00;1.97;;;14.70;36.70;;;;;;5122412;27;20456;-42
2022/02/11 13:54:16;;;;;;;4.40;1.93;;;14.80;36.50;;;;;;5117506;28;20425;-42
2022/02/11 13:56:46;;;;;;;5.13;1.83;;;14.80;36.30;;;;;;5132509;27;20437;-44
2022/02/11 13:59:14;;;;;;;7.80;5.17;;;14.60;36.10;;;;;;5135095;27;20414;-43
2022/02/11 14:01:41;;;;;;;3.50;2.33;;;14.70;36.20;;;;;;5116606;27;20477;-43
2022/02/11 14:04:09;;;;;;;3.63;1.80;;;15.30;41.50;;;;;;5135097;27;20405;-43
2022/02/11 14:06:36;;;;;;;3.60;2.00;;;15.90;44.40;;;;;;5133632;27;20421;-44
2022/02/11 14:09:17;;;;;;;3.23;1.43;;;16.70;45.40;;;;;;5098562;28;20502;-43
2022/02/11 14:11:43;;;;;;;3.33;1.80;;;17.80;43.70;;;;;;5115981;27;20429;-43
2022/02/11 14:14:11;;;;;;;3.13;1.90;;;18.20;42.60;;;;;;5138698;27;20433;-46
2022/02/11 14:16:37;;;;;;;1.50;1.20;;;18.30;42.10;;;;;;5137740;27;20235;-43
2022/02/11 14:19:02;;;;;;;3.30;1.60;;;18.30;42.10;;;;;;5139009;27;20479;-43
2022/02/11 14:21:28;;;;;;;2.20;1.40;;;18.10;41.70;;;;;;5139040;27;20213;-43
2022/02/11 14:23:54;;;;;;;4.40;1.57;;;17.80;41.90;;;;;;5132220;27;20257;-43
2022/02/11 14:26:20;;;;;;;4.60;1.57;;;17.40;41.50;;;;;;5116522;28;20470;-43
2022/02/11 14:28:45;;;;;;;1.90;1.40;;;17.10;42.70;;;;;;5119219;28;20534;-42
2022/02/11 14:31:11;;;;;;;7.37;2.13;;;17.10;42.80;;;;;;5116067;28;20187;-44
2022/02/11 14:33:37;;;;;;;9.90;2.60;;;16.90;43.00;;;;;;5118764;28;20609;-43
2022/02/11 14:36:03;;;;;;;6.70;2.07;;;16.80;43.10;;;;;;5115946;28;20545;-41
2022/02/11 14:38:29;;;;;;;4.60;2.20;;;16.60;41.80;;;;;;5117638;28;20173;-42
2022/02/11 14:43:42;;;;;;;4.70;2.13;;;16.10;37.40;;;;;;5115244;28;20233;-42
2022/02/11 14:46:08;;;;;;;5.50;2.77;;;15.60;37.00;;;;;;5096986;28;20401;-42
2022/02/11 14:48:34;;;;;;;2.40;1.73;;;15.00;36.30;;;;;;5116170;28;20407;-42
2022/02/11 14:51:03;;;;;;;3.97;2.20;;;14.60;36.50;;;;;;5099291;28;20527;-42
2022/02/11 14:53:29;;;;;;;3.77;1.90;;;14.40;36.50;;;;;;5119089;28;20410;-42
2022/02/11 14:55:55;;;;;;;2.90;2.10;;;14.80;36.60;;;;;;5117068;28;20421;-43
2022/02/11 14:58:21;;;;;;;3.57;2.40;;;15.50;36.60;;;;;;5117969;28;20477;-43
2022/02/11 15:00:46;;;;;;;4.53;2.20;;;16.40;36.20;;;;;;5100938;28;20613;-44
2022/02/11 15:03:12;;;;;;;2.77;2.17;;;17.30;35.60;;;;;;5117149;28;20588;-44
2022/02/11 15:05:38;;;;;;;3.90;2.30;;;17.80;33.90;;;;;;5099594;28;20168;-42
2022/02/11 15:08:04;;;;;;;2.90;1.83;;;18.40;33.30;;;;;;5116333;28;20260;-41
2022/02/11 15:10:29;;;;;;;2.80;1.97;;;19.00;32.90;;;;;;5101000;28;20183;-42
2022/02/11 15:12:55;;;;;;;6.30;2.10;;;19.60;32.60;;;;;;5115151;28;20785;-44
2022/02/11 15:15:21;;;;;;;3.47;1.80;;;20.10;32.10;;;;;;5117137;28;20168;-44
2022/02/11 15:17:47;;;;;;;3.43;1.90;;;20.60;31.90;;;;;;5115401;28;20177;-42
2022/02/11 15:20:13;;;;;;;4.13;2.00;;;20.80;31.50;;;;;;5115496;28;20622;-54
2022/02/11 15:22:38;;;;;;;4.20;2.13;;;21.10;31.10;;;;;;5095061;28;20232;-43
2022/02/11 15:25:04;;;;;;;3.77;2.40;;;21.00;30.60;;;;;;5116718;28;20421;-42
2022/02/11 15:27:30;;;;;;;5.93;2.20;;;21.20;30.70;;;;;;5098144;28;20192;-41
2022/02/11 15:29:58;;;;;;;4.00;1.93;;;21.40;30.70;;;;;;5083423;28;20815;-41
2022/02/11 15:32:24;;;;;;;3.70;2.37;;;21.60;30.80;;;;;;5115930;28;20199;-41
2022/02/11 15:34:49;;;;;;;6.03;2.17;;;21.80;30.40;;;;;;5117248;28;20698;-44
2022/02/11 15:37:17;;;;;;;3.73;2.00;;;21.90;30.30;;;;;;5118517;28;20201;-41
2022/02/11 15:39:44;;;;;;;3.57;2.10;;;21.60;30.00;;;;;;5117692;28;20259;-42
2022/02/11 15:42:10;;;;;;;3.10;2.00;;;20.90;30.00;;;;;;5118789;28;20408;-44
2022/02/11 15:44:36;;;;;;;2.40;1.60;;;20.00;29.90;;;;;;5116302;28;20499;-42
2022/02/11 15:47:02;;;;;;;2.77;1.80;;;19.30;30.60;;;;;;5117854;28;20418;-42
2022/02/11 15:49:27;;;;;;;3.43;2.17;;;18.50;30.40;;;;;;5115645;28;20704;-42
2022/02/11 15:51:53;;;;;;;7.50;2.50;;;17.80;30.80;;;;;;5116709;28;20169;-42
2022/02/11 15:54:18;;;;;;;4.07;2.00;;;17.20;31.20;;;;;;5115760;28;20263;-42
2022/02/11 15:56:44;;;;;;;2.10;1.67;;;16.80;31.60;;;;;;5116909;28;20172;-43
2022/02/11 15:59:10;;;;;;;2.70;1.70;;;16.30;31.90;;;;;;5097533;28;20181;-43
2022/02/11 16:01:36;;;;;;;3.40;1.87;;;15.90;32.30;;;;;;5117732;28;20469;-41
2022/02/11 16:04:04;;;;;;;3.53;2.07;;;15.50;32.70;;;;;;5097708;28;20577;-43
2022/02/11 16:06:29;;;;;;;3.00;2.00;;;15.20;33.00;;;;;;5115561;28;20184;-42
2022/02/11 16:08:55;;;;;;;3.67;1.90;;;14.90;33.20;;;;;;5097844;28;20465;-42
2022/02/11 16:11:21;;;;;;;4.17;2.10;;;14.50;33.40;;;;;;5116875;28;20458;-43
2022/02/11 16:13:46;;;;;;;4.70;2.07;;;14.30;33.80;;;;;;5095739;28;20180;-42
2022/02/11 16:16:13;;;;;;;4.90;1.80;;;14.20;34.10;;;;;;5097860;28;20188;-41
2022/02/11 16:18:39;;;;;;;4.87;2.67;;;14.00;34.20;;;;;;5114981;28;20582;-42
2022/02/11 16:21:04;;;;;;;5.30;1.70;;;13.80;34.40;;;;;;5115272;28;20465;-41
2022/02/11 16:23:35;;;;;;;4.90;2.43;;;13.60;34.60;;;;;;5114520;28;20243;-42
2022/02/11 16:26:02;;;;;;;4.40;1.97;;;13.40;34.80;;;;;;5116631;28;20415;-42
2022/02/11 16:28:30;;;;;;;3.67;2.07;;;13.20;35.10;;;;;;5113870;28;20464;-42
2022/02/11 16:31:24;;;;;;;3.57;2.07;;;12.90;35.30;;;;;;5117497;28;20487;-44
2022/02/11 16:33:51;;;;;;;4.50;2.00;;;12.60;35.70;;;;;;5114617;28;20433;-40
2022/02/11 16:36:18;;;;;;;4.37;1.83;;;12.30;36.00;;;;;;5116656;28;20414;-43
2022/02/11 16:38:45;;;;;;;6.10;2.50;;;12.10;36.40;;;;;;5116150;28;20437;-43
2022/02/11 16:41:11;;;;;;;6.83;2.60;;;11.90;36.60;;;;;;5098219;28;20563;-45
2022/02/11 16:43:37;;;;;;;4.63;2.20;;;11.70;37.00;;;;;;5113483;28;20419;-41
2022/02/11 16:46:03;;;;;;;4.73;2.00;;;11.50;37.30;;;;;;5112478;28;20413;-43
2022/02/11 16:48:29;;;;;;;3.63;2.17;;;11.30;37.40;;;;;;5115775;28;20438;-43
2022/02/11 16:50:55;;;;;;;4.10;2.73;;;11.20;37.90;;;;;;5117332;28;20420;-44
2022/02/11 16:53:20;;;;;;;5.00;3.43;;;11.00;38.00;;;;;;5115013;28;20423;-42